sensor_id;sensor_type;location;lat;lon;timestamp;temperature;humidity
27026;DHT22;14565;48.626;8.978;2023-02-24T00:01:26;7.10;99.90
27026;DHT22;14565;48.626;8.978;2023-02-24T00:03:57;7.10;99.90
27026;DHT22;14565;48.626;8.978;2023-02-24T00:06:24;7.10;99.90
27026;DHT22;14565;48.626;8.978;2023-02-24T00:08:50;7.10;99.90
27026;DHT22;14565;48.626;8.978;2023-02-24T00:11:17;7.10;99.90
27026;DHT22;14565;48.626;8.978;2023-02-24T00:13:44;7.10;99.90
27026;DHT22;14565;48.626;8.978;2023-02-24T00:16:12;7.10;99.90
27026;DHT22;14565;48.626;8.978;2023-02-24T00:18:38;7.10;99.90
27026;DHT22;14565;48.626;8.978;2023-02-24T00:21:12;7.10;99.90
27026;DHT22;14565;48.626;8.978;2023-02-24T00:23:40;7.10;99.90
27026;DHT22;14565;48.626;8.978;2023-02-24T00:26:07;7.20;99.90
27026;DHT22;14565;48.626;8.978;2023-02-24T00:28:34;7.00;99.90
27026;DHT22;14565;48.626;8.978;2023-02-24T00:31:09;7.00;99.90
27026;DHT22;14565;48.626;8.978;2023-02-24T00:33:36;7.10;99.90
27026;DHT22;14565;48.626;8.978;2023-02-24T00:36:12;7.10;99.90
27026;DHT22;14565;48.626;8.978;2023-02-24T00:38:40;7.10;99.90
27026;DHT22;14565;48.626;8.978;2023-02-24T00:41:18;7.10;99.90
27026;DHT22;14565;48.626;8.978;2023-02-24T00:43:48;7.10;99.90
27026;DHT22;14565;48.626;8.978;2023-02-24T00:48:44;7.20;99.90
27026;DHT22;14565;48.626;8.978;2023-02-24T00:51:15;7.20;99.90
27026;DHT22;14565;48.626;8.978;2023-02-24T00:53:41;7.20;99.90
27026;DHT22;14565;48.626;8.978;2023-02-24T00:56:07;7.30;99.90
27026;DHT22;14565;48.626;8.978;2023-02-24T00:58:39;7.20;99.90
27026;DHT22;14565;48.626;8.978;2023-02-24T01:01:11;7.20;99.90
27026;DHT22;14565;48.626;8.978;2023-02-24T01:03:38;7.20;99.90
27026;DHT22;14565;48.626;8.978;2023-02-24T01:06:05;7.20;99.90
27026;DHT22;14565;48.626;8.978;2023-02-24T01:08:31;7.20;99.90
27026;DHT22;14565;48.626;8.978;2023-02-24T01:11:01;7.20;99.90
27026;DHT22;14565;48.626;8.978;2023-02-24T01:13:46;7.20;99.90
27026;DHT22;14565;48.626;8.978;2023-02-24T01:16:12;7.20;99.90
27026;DHT22;14565;48.626;8.978;2023-02-24T01:18:39;7.20;99.90
27026;DHT22;14565;48.626;8.978;2023-02-24T01:21:08;7.10;99.90
27026;DHT22;14565;48.626;8.978;2023-02-24T01:23:34;7.20;99.90
27026;DHT22;14565;48.626;8.978;2023-02-24T01:26:01;7.10;99.90
27026;DHT22;14565;48.626;8.978;2023-02-24T01:28:27;7.20;99.90
27026;DHT22;14565;48.626;8.978;2023-02-24T01:30:53;7.20;99.90
27026;DHT22;14565;48.626;8.978;2023-02-24T01:33:20;7.20;99.90
27026;DHT22;14565;48.626;8.978;2023-02-24T01:35:46;7.30;99.90
27026;DHT22;14565;48.626;8.978;2023-02-24T01:38:12;7.30;99.90
27026;DHT22;14565;48.626;8.978;2023-02-24T01:40:38;7.30;99.90
27026;DHT22;14565;48.626;8.978;2023-02-24T01:43:04;7.30;99.90
27026;DHT22;14565;48.626;8.978;2023-02-24T01:45:34;7.30;99.90
27026;DHT22;14565;48.626;8.978;2023-02-24T01:48:08;7.30;99.90
27026;DHT22;14565;48.626;8.978;2023-02-24T01:50:34;7.30;99.90
27026;DHT22;14565;48.626;8.978;2023-02-24T01:53:04;7.40;99.90
27026;DHT22;14565;48.626;8.978;2023-02-24T01:55:40;7.50;99.90
27026;DHT22;14565;48.626;8.978;2023-02-24T01:58:14;7.50;99.90
27026;DHT22;14565;48.626;8.978;2023-02-24T02:00:40;7.60;99.90
27026;DHT22;14565;48.626;8.978;2023-02-24T02:03:31;7.70;99.90
27026;DHT22;14565;48.626;8.978;2023-02-24T02:06:05;7.70;99.90
27026;DHT22;14565;48.626;8.978;2023-02-24T02:08:31;7.80;99.90
27026;DHT22;14565;48.626;8.978;2023-02-24T02:11:02;7.80;99.90
27026;DHT22;14565;48.626;8.978;2023-02-24T02:13:30;7.80;99.90
27026;DHT22;14565;48.626;8.978;2023-02-24T02:21:38;7.90;99.90
27026;DHT22;14565;48.626;8.978;2023-02-24T02:36:00;7.90;99.90
27026;DHT22;14565;48.626;8.978;2023-02-24T02:38:54;7.90;99.90
27026;DHT22;14565;48.626;8.978;2023-02-24T02:41:38;7.90;99.90
27026;DHT22;14565;48.626;8.978;2023-02-24T02:44:18;7.90;99.90
27026;DHT22;14565;48.626;8.978;2023-02-24T02:47:03;7.80;99.90
27026;DHT22;14565;48.626;8.978;2023-02-24T02:52:09;7.80;99.90
27026;DHT22;14565;48.626;8.978;2023-02-24T02:54:48;7.80;99.90
27026;DHT22;14565;48.626;8.978;2023-02-24T02:57:27;7.80;99.90
27026;DHT22;14565;48.626;8.978;2023-02-24T03:00:11;8.00;99.90
27026;DHT22;14565;48.626;8.978;2023-02-24T03:02:42;7.90;99.90
27026;DHT22;14565;48.626;8.978;2023-02-24T03:05:10;8.10;99.90
27026;DHT22;14565;48.626;8.978;2023-02-24T03:07:44;8.00;99.90
27026;DHT22;14565;48.626;8.978;2023-02-24T03:12:48;7.90;99.90
27026;DHT22;14565;48.626;8.978;2023-02-24T03:15:16;7.80;99.90
27026;DHT22;14565;48.626;8.978;2023-02-24T03:17:46;7.80;99.90
27026;DHT22;14565;48.626;8.978;2023-02-24T03:20:42;7.80;99.90
27026;DHT22;14565;48.626;8.978;2023-02-24T03:23:18;7.80;99.90
27026;DHT22;14565;48.626;8.978;2023-02-24T03:26:09;7.80;99.90
27026;DHT22;14565;48.626;8.978;2023-02-24T03:29:08;7.80;99.90
27026;DHT22;14565;48.626;8.978;2023-02-24T03:31:59;7.80;99.90
27026;DHT22;14565;48.626;8.978;2023-02-24T03:34:41;7.80;99.90
27026;DHT22;14565;48.626;8.978;2023-02-24T03:37:11;7.70;99.90
27026;DHT22;14565;48.626;8.978;2023-02-24T03:39:37;7.80;99.90
27026;DHT22;14565;48.626;8.978;2023-02-24T03:42:13;7.70;99.90
27026;DHT22;14565;48.626;8.978;2023-02-24T03:44:39;7.80;99.90
27026;DHT22;14565;48.626;8.978;2023-02-24T03:47:05;7.90;99.90
27026;DHT22;14565;48.626;8.978;2023-02-24T03:49:34;7.90;99.90
27026;DHT22;14565;48.626;8.978;2023-02-24T03:52:32;7.80;99.90
27026;DHT22;14565;48.626;8.978;2023-02-24T03:58:14;7.90;99.90
27026;DHT22;14565;48.626;8.978;2023-02-24T04:12:29;7.80;99.90
27026;DHT22;14565;48.626;8.978;2023-02-24T04:17:34;7.80;99.90
27026;DHT22;14565;48.626;8.978;2023-02-24T04:20:04;7.90;99.90
27026;DHT22;14565;48.626;8.978;2023-02-24T04:22:38;7.80;99.90
27026;DHT22;14565;48.626;8.978;2023-02-24T04:25:05;7.80;99.90
27026;DHT22;14565;48.626;8.978;2023-02-24T04:27:39;7.80;99.90
27026;DHT22;14565;48.626;8.978;2023-02-24T04:30:08;7.70;99.90
27026;DHT22;14565;48.626;8.978;2023-02-24T04:32:36;7.70;99.90
27026;DHT22;14565;48.626;8.978;2023-02-24T04:35:06;7.70;99.90
27026;DHT22;14565;48.626;8.978;2023-02-24T04:37:34;7.70;99.90
27026;DHT22;14565;48.626;8.978;2023-02-24T04:40:01;7.70;99.90
27026;DHT22;14565;48.626;8.978;2023-02-24T04:42:34;7.80;99.90
27026;DHT22;14565;48.626;8.978;2023-02-24T04:45:00;7.70;99.90
27026;DHT22;14565;48.626;8.978;2023-02-24T04:47:26;7.70;99.90
27026;DHT22;14565;48.626;8.978;2023-02-24T04:49:53;7.70;99.90
27026;DHT22;14565;48.626;8.978;2023-02-24T04:52:19;7.70;99.90
27026;DHT22;14565;48.626;8.978;2023-02-24T04:54:45;7.80;99.90
27026;DHT22;14565;48.626;8.978;2023-02-24T04:57:12;7.80;99.90
27026;DHT22;14565;48.626;8.978;2023-02-24T04:59:38;7.80;99.90
27026;DHT22;14565;48.626;8.978;2023-02-24T05:02:05;7.80;99.90
27026;DHT22;14565;48.626;8.978;2023-02-24T05:04:34;7.70;99.90
27026;DHT22;14565;48.626;8.978;2023-02-24T05:07:00;7.70;99.90
27026;DHT22;14565;48.626;8.978;2023-02-24T05:09:27;7.70;99.90
27026;DHT22;14565;48.626;8.978;2023-02-24T05:11:56;7.70;99.90
27026;DHT22;14565;48.626;8.978;2023-02-24T05:14:21;7.60;99.90
27026;DHT22;14565;48.626;8.978;2023-02-24T05:16:49;7.70;99.90
27026;DHT22;14565;48.626;8.978;2023-02-24T05:19:17;7.70;99.90
27026;DHT22;14565;48.626;8.978;2023-02-24T05:22:02;7.70;99.90
27026;DHT22;14565;48.626;8.978;2023-02-24T05:24:30;7.80;99.90
27026;DHT22;14565;48.626;8.978;2023-02-24T05:26:56;7.70;99.90
27026;DHT22;14565;48.626;8.978;2023-02-24T05:29:27;7.70;99.90
27026;DHT22;14565;48.626;8.978;2023-02-24T05:31:54;7.70;99.90
27026;DHT22;14565;48.626;8.978;2023-02-24T05:34:23;7.60;99.90
27026;DHT22;14565;48.626;8.978;2023-02-24T05:36:49;7.60;99.90
27026;DHT22;14565;48.626;8.978;2023-02-24T05:39:16;7.60;99.90
27026;DHT22;14565;48.626;8.978;2023-02-24T05:41:45;7.60;99.90
27026;DHT22;14565;48.626;8.978;2023-02-24T05:44:15;7.50;99.90
27026;DHT22;14565;48.626;8.978;2023-02-24T05:46:45;7.50;99.90
27026;DHT22;14565;48.626;8.978;2023-02-24T05:51:39;7.50;99.90
27026;DHT22;14565;48.626;8.978;2023-02-24T05:54:09;7.40;99.90
27026;DHT22;14565;48.626;8.978;2023-02-24T05:56:37;7.40;99.90
27026;DHT22;14565;48.626;8.978;2023-02-24T05:59:05;7.40;99.90
27026;DHT22;14565;48.626;8.978;2023-02-24T06:01:38;7.50;99.90
27026;DHT22;14565;48.626;8.978;2023-02-24T06:04:10;7.60;99.90
27026;DHT22;14565;48.626;8.978;2023-02-24T06:06:46;7.50;99.90
27026;DHT22;14565;48.626;8.978;2023-02-24T06:09:18;7.50;99.90
27026;DHT22;14565;48.626;8.978;2023-02-24T06:11:44;7.50;99.90
27026;DHT22;14565;48.626;8.978;2023-02-24T06:14:10;7.50;99.90
27026;DHT22;14565;48.626;8.978;2023-02-24T06:16:38;7.60;99.90
27026;DHT22;14565;48.626;8.978;2023-02-24T06:19:09;7.50;99.90
27026;DHT22;14565;48.626;8.978;2023-02-24T06:21:36;7.60;99.90
27026;DHT22;14565;48.626;8.978;2023-02-24T06:24:11;7.50;99.90
27026;DHT22;14565;48.626;8.978;2023-02-24T06:26:39;7.50;99.90
27026;DHT22;14565;48.626;8.978;2023-02-24T06:29:13;7.40;99.90
27026;DHT22;14565;48.626;8.978;2023-02-24T06:31:40;7.50;99.90
27026;DHT22;14565;48.626;8.978;2023-02-24T06:34:07;7.40;99.90
27026;DHT22;14565;48.626;8.978;2023-02-24T06:36:36;7.50;99.90
27026;DHT22;14565;48.626;8.978;2023-02-24T06:39:02;7.40;99.90
27026;DHT22;14565;48.626;8.978;2023-02-24T06:41:28;7.50;99.90
27026;DHT22;14565;48.626;8.978;2023-02-24T06:43:54;7.40;99.90
27026;DHT22;14565;48.626;8.978;2023-02-24T06:46:20;7.50;99.90
27026;DHT22;14565;48.626;8.978;2023-02-24T06:48:45;7.50;99.90
27026;DHT22;14565;48.626;8.978;2023-02-24T06:51:14;7.50;99.90
27026;DHT22;14565;48.626;8.978;2023-02-24T06:53:41;7.60;99.90
27026;DHT22;14565;48.626;8.978;2023-02-24T06:56:12;7.60;99.90
27026;DHT22;14565;48.626;8.978;2023-02-24T06:58:48;7.60;99.90
27026;DHT22;14565;48.626;8.978;2023-02-24T07:01:20;7.60;99.90
27026;DHT22;14565;48.626;8.978;2023-02-24T07:03:54;7.60;99.90
27026;DHT22;14565;48.626;8.978;2023-02-24T07:06:36;7.60;99.90
27026;DHT22;14565;48.626;8.978;2023-02-24T07:09:07;7.60;99.90
27026;DHT22;14565;48.626;8.978;2023-02-24T07:11:34;7.60;99.90
27026;DHT22;14565;48.626;8.978;2023-02-24T07:14:00;7.60;99.90
27026;DHT22;14565;48.626;8.978;2023-02-24T07:16:27;7.70;99.90
27026;DHT22;14565;48.626;8.978;2023-02-24T07:18:57;7.70;99.90
27026;DHT22;14565;48.626;8.978;2023-02-24T07:21:25;7.60;99.90
27026;DHT22;14565;48.626;8.978;2023-02-24T07:23:51;7.60;99.90
27026;DHT22;14565;48.626;8.978;2023-02-24T07:26:23;7.60;99.90
27026;DHT22;14565;48.626;8.978;2023-02-24T07:28:51;7.60;99.90
27026;DHT22;14565;48.626;8.978;2023-02-24T07:31:20;7.70;99.90
27026;DHT22;14565;48.626;8.978;2023-02-24T07:33:48;7.90;99.90
27026;DHT22;14565;48.626;8.978;2023-02-24T07:36:16;7.60;99.90
27026;DHT22;14565;48.626;8.978;2023-02-24T07:38:50;7.60;99.90
27026;DHT22;14565;48.626;8.978;2023-02-24T07:41:17;7.50;99.90
27026;DHT22;14565;48.626;8.978;2023-02-24T07:43:48;7.30;99.90
27026;DHT22;14565;48.626;8.978;2023-02-24T07:46:17;7.30;99.90
27026;DHT22;14565;48.626;8.978;2023-02-24T07:48:49;7.30;99.90
27026;DHT22;14565;48.626;8.978;2023-02-24T07:51:20;7.20;99.90
27026;DHT22;14565;48.626;8.978;2023-02-24T07:53:51;7.20;99.90
27026;DHT22;14565;48.626;8.978;2023-02-24T07:56:19;7.20;99.90
27026;DHT22;14565;48.626;8.978;2023-02-24T07:58:48;7.20;99.90
27026;DHT22;14565;48.626;8.978;2023-02-24T08:01:22;7.30;99.90
27026;DHT22;14565;48.626;8.978;2023-02-24T08:03:48;7.30;99.90
27026;DHT22;14565;48.626;8.978;2023-02-24T08:06:19;7.30;99.90
27026;DHT22;14565;48.626;8.978;2023-02-24T08:08:54;7.40;99.90
27026;DHT22;14565;48.626;8.978;2023-02-24T08:11:28;7.50;99.90
27026;DHT22;14565;48.626;8.978;2023-02-24T08:14:04;7.30;99.90
27026;DHT22;14565;48.626;8.978;2023-02-24T08:16:40;7.30;99.90
27026;DHT22;14565;48.626;8.978;2023-02-24T08:19:07;7.30;99.90
27026;DHT22;14565;48.626;8.978;2023-02-24T08:21:34;7.20;99.90
27026;DHT22;14565;48.626;8.978;2023-02-24T08:24:06;7.30;99.90
27026;DHT22;14565;48.626;8.978;2023-02-24T08:26:51;7.30;99.90
27026;DHT22;14565;48.626;8.978;2023-02-24T08:29:33;7.40;99.90
27026;DHT22;14565;48.626;8.978;2023-02-24T08:32:08;7.50;99.90
27026;DHT22;14565;48.626;8.978;2023-02-24T08:34:38;7.60;99.90
27026;DHT22;14565;48.626;8.978;2023-02-24T08:37:04;7.60;99.90
27026;DHT22;14565;48.626;8.978;2023-02-24T08:39:30;7.70;99.90
27026;DHT22;14565;48.626;8.978;2023-02-24T08:42:01;7.80;99.90
27026;DHT22;14565;48.626;8.978;2023-02-24T08:44:27;7.80;99.90
27026;DHT22;14565;48.626;8.978;2023-02-24T08:46:53;8.10;99.90
27026;DHT22;14565;48.626;8.978;2023-02-24T08:49:21;8.30;99.90
27026;DHT22;14565;48.626;8.978;2023-02-24T08:51:51;8.00;99.90
27026;DHT22;14565;48.626;8.978;2023-02-24T08:54:23;7.80;99.90
27026;DHT22;14565;48.626;8.978;2023-02-24T08:56:53;7.80;99.90
27026;DHT22;14565;48.626;8.978;2023-02-24T08:59:24;8.00;99.90
27026;DHT22;14565;48.626;8.978;2023-02-24T09:01:57;8.10;99.90
27026;DHT22;14565;48.626;8.978;2023-02-24T09:04:47;8.20;99.90
27026;DHT22;14565;48.626;8.978;2023-02-24T09:07:15;7.90;99.90
27026;DHT22;14565;48.626;8.978;2023-02-24T09:09:42;7.90;99.90
27026;DHT22;14565;48.626;8.978;2023-02-24T09:12:09;8.00;99.90
27026;DHT22;14565;48.626;8.978;2023-02-24T09:14:47;8.00;99.90
27026;DHT22;14565;48.626;8.978;2023-02-24T09:17:14;8.00;99.90
27026;DHT22;14565;48.626;8.978;2023-02-24T09:22:23;8.00;99.90
27026;DHT22;14565;48.626;8.978;2023-02-24T09:24:52;8.10;99.90
27026;DHT22;14565;48.626;8.978;2023-02-24T09:27:38;8.40;99.90
27026;DHT22;14565;48.626;8.978;2023-02-24T09:30:09;8.60;99.90
27026;DHT22;14565;48.626;8.978;2023-02-24T09:32:50;8.70;99.90
27026;DHT22;14565;48.626;8.978;2023-02-24T09:35:26;9.00;99.90
27026;DHT22;14565;48.626;8.978;2023-02-24T09:37:58;9.00;99.90
27026;DHT22;14565;48.626;8.978;2023-02-24T09:40:34;9.10;99.90
27026;DHT22;14565;48.626;8.978;2023-02-24T09:43:11;9.40;99.90
27026;DHT22;14565;48.626;8.978;2023-02-24T09:45:48;9.10;99.90
27026;DHT22;14565;48.626;8.978;2023-02-24T09:48:34;9.50;99.90
27026;DHT22;14565;48.626;8.978;2023-02-24T09:51:09;9.60;99.90
27026;DHT22;14565;48.626;8.978;2023-02-24T09:53:38;9.40;99.90
27026;DHT22;14565;48.626;8.978;2023-02-24T09:56:26;9.50;99.90
27026;DHT22;14565;48.626;8.978;2023-02-24T09:58:59;9.20;99.90
27026;DHT22;14565;48.626;8.978;2023-02-24T10:02:01;9.50;99.90
27026;DHT22;14565;48.626;8.978;2023-02-24T10:07:28;9.70;99.90
27026;DHT22;14565;48.626;8.978;2023-02-24T10:10:10;9.80;99.90
27026;DHT22;14565;48.626;8.978;2023-02-24T10:12:52;9.70;99.90
27026;DHT22;14565;48.626;8.978;2023-02-24T10:15:30;9.60;99.90
27026;DHT22;14565;48.626;8.978;2023-02-24T10:18:29;9.70;99.90
27026;DHT22;14565;48.626;8.978;2023-02-24T10:24:24;10.30;99.90
27026;DHT22;14565;48.626;8.978;2023-02-24T10:26:51;10.30;99.90
27026;DHT22;14565;48.626;8.978;2023-02-24T10:32:39;10.30;99.90
27026;DHT22;14565;48.626;8.978;2023-02-24T10:35:16;10.40;99.90
27026;DHT22;14565;48.626;8.978;2023-02-24T10:37:42;10.80;99.90
27026;DHT22;14565;48.626;8.978;2023-02-24T10:40:08;10.40;99.90
27026;DHT22;14565;48.626;8.978;2023-02-24T10:42:36;10.50;99.90
27026;DHT22;14565;48.626;8.978;2023-02-24T10:45:22;10.80;99.90
27026;DHT22;14565;48.626;8.978;2023-02-24T10:47:54;10.30;99.90
27026;DHT22;14565;48.626;8.978;2023-02-24T10:50:32;10.40;99.90
27026;DHT22;14565;48.626;8.978;2023-02-24T10:53:12;10.50;99.90
27026;DHT22;14565;48.626;8.978;2023-02-24T10:55:51;10.30;99.90
27026;DHT22;14565;48.626;8.978;2023-02-24T10:58:34;10.40;99.90
27026;DHT22;14565;48.626;8.978;2023-02-24T11:01:35;10.40;99.90
27026;DHT22;14565;48.626;8.978;2023-02-24T11:04:19;10.40;99.90
27026;DHT22;14565;48.626;8.978;2023-02-24T11:07:13;10.20;99.90
27026;DHT22;14565;48.626;8.978;2023-02-24T11:10:19;9.90;99.90
27026;DHT22;14565;48.626;8.978;2023-02-24T11:12:58;9.70;99.90
27026;DHT22;14565;48.626;8.978;2023-02-24T11:15:52;9.70;99.90
27026;DHT22;14565;48.626;8.978;2023-02-24T11:18:38;9.10;99.90
27026;DHT22;14565;48.626;8.978;2023-02-24T11:21:07;9.00;99.90
27026;DHT22;14565;48.626;8.978;2023-02-24T11:32:05;8.90;99.90
27026;DHT22;14565;48.626;8.978;2023-02-24T11:37:35;8.80;99.90
27026;DHT22;14565;48.626;8.978;2023-02-24T11:40:20;8.80;99.90
27026;DHT22;14565;48.626;8.978;2023-02-24T11:42:59;8.90;99.90
27026;DHT22;14565;48.626;8.978;2023-02-24T11:45:41;8.90;99.90
27026;DHT22;14565;48.626;8.978;2023-02-24T12:02:17;10.30;99.90
27026;DHT22;14565;48.626;8.978;2023-02-24T12:05:04;10.70;99.90
27026;DHT22;14565;48.626;8.978;2023-02-24T12:07:38;11.30;99.90
27026;DHT22;14565;48.626;8.978;2023-02-24T12:10:47;11.10;99.90
27026;DHT22;14565;48.626;8.978;2023-02-24T12:18:33;11.10;99.90
27026;DHT22;14565;48.626;8.978;2023-02-24T12:21:11;10.90;99.90
27026;DHT22;14565;48.626;8.978;2023-02-24T12:23:41;11.10;99.90
27026;DHT22;14565;48.626;8.978;2023-02-24T12:31:43;10.50;99.90
27026;DHT22;14565;48.626;8.978;2023-02-24T12:34:39;10.70;99.90
27026;DHT22;14565;48.626;8.978;2023-02-24T12:37:33;10.60;99.90
27026;DHT22;14565;48.626;8.978;2023-02-24T12:45:22;10.80;99.90
27026;DHT22;14565;48.626;8.978;2023-02-24T12:53:14;10.80;99.90
27026;DHT22;14565;48.626;8.978;2023-02-24T12:58:20;10.90;99.90
27026;DHT22;14565;48.626;8.978;2023-02-24T13:01:19;10.60;99.90
27026;DHT22;14565;48.626;8.978;2023-02-24T13:04:13;10.70;99.90
27026;DHT22;14565;48.626;8.978;2023-02-24T13:13:07;10.80;99.90
27026;DHT22;14565;48.626;8.978;2023-02-24T13:15:35;10.80;99.90
27026;DHT22;14565;48.626;8.978;2023-02-24T13:18:00;10.90;99.90
27026;DHT22;14565;48.626;8.978;2023-02-24T13:20:35;10.90;99.90
27026;DHT22;14565;48.626;8.978;2023-02-24T13:23:14;11.00;99.90
27026;DHT22;14565;48.626;8.978;2023-02-24T13:25:52;10.90;99.90
27026;DHT22;14565;48.626;8.978;2023-02-24T13:28:27;10.70;99.90
27026;DHT22;14565;48.626;8.978;2023-02-24T13:31:05;10.80;99.90
27026;DHT22;14565;48.626;8.978;2023-02-24T13:33:32;10.80;99.90
27026;DHT22;14565;48.626;8.978;2023-02-24T13:38:44;11.00;99.90
27026;DHT22;14565;48.626;8.978;2023-02-24T13:44:26;10.80;99.90
27026;DHT22;14565;48.626;8.978;2023-02-24T14:01:14;10.80;99.90
27026;DHT22;14565;48.626;8.978;2023-02-24T14:03:43;10.70;99.90
27026;DHT22;14565;48.626;8.978;2023-02-24T14:06:36;10.70;99.90
27026;DHT22;14565;48.626;8.978;2023-02-24T14:09:03;10.70;99.90
27026;DHT22;14565;48.626;8.978;2023-02-24T14:11:34;10.60;99.90
27026;DHT22;14565;48.626;8.978;2023-02-24T14:14:01;10.30;99.90
27026;DHT22;14565;48.626;8.978;2023-02-24T14:16:31;10.40;99.90
27026;DHT22;14565;48.626;8.978;2023-02-24T14:19:01;10.20;99.90
27026;DHT22;14565;48.626;8.978;2023-02-24T14:21:31;10.10;99.90
27026;DHT22;14565;48.626;8.978;2023-02-24T14:24:02;10.10;99.90
27026;DHT22;14565;48.626;8.978;2023-02-24T14:26:35;10.20;99.90
27026;DHT22;14565;48.626;8.978;2023-02-24T14:29:02;10.20;99.90
27026;DHT22;14565;48.626;8.978;2023-02-24T14:31:28;10.20;99.90
27026;DHT22;14565;48.626;8.978;2023-02-24T14:34:00;10.20;99.90
27026;DHT22;14565;48.626;8.978;2023-02-24T14:36:30;10.20;99.90
27026;DHT22;14565;48.626;8.978;2023-02-24T14:39:18;10.20;99.90
27026;DHT22;14565;48.626;8.978;2023-02-24T14:41:45;10.10;99.90
27026;DHT22;14565;48.626;8.978;2023-02-24T14:44:26;10.10;99.90
27026;DHT22;14565;48.626;8.978;2023-02-24T14:46:54;10.00;99.90
27026;DHT22;14565;48.626;8.978;2023-02-24T14:49:29;9.80;99.90
27026;DHT22;14565;48.626;8.978;2023-02-24T14:52:14;9.70;99.90
27026;DHT22;14565;48.626;8.978;2023-02-24T14:55:16;9.70;99.90
27026;DHT22;14565;48.626;8.978;2023-02-24T14:57:59;9.70;99.90
27026;DHT22;14565;48.626;8.978;2023-02-24T15:00:33;9.90;99.90
27026;DHT22;14565;48.626;8.978;2023-02-24T15:05:50;9.90;99.90
27026;DHT22;14565;48.626;8.978;2023-02-24T15:10:55;9.80;99.90
27026;DHT22;14565;48.626;8.978;2023-02-24T15:18:52;9.60;99.90
27026;DHT22;14565;48.626;8.978;2023-02-24T15:21:26;9.70;99.90
27026;DHT22;14565;48.626;8.978;2023-02-24T15:24:20;9.60;99.90
27026;DHT22;14565;48.626;8.978;2023-02-24T15:26:53;9.60;99.90
27026;DHT22;14565;48.626;8.978;2023-02-24T15:29:21;9.50;99.90
27026;DHT22;14565;48.626;8.978;2023-02-24T15:31:49;9.60;99.90
27026;DHT22;14565;48.626;8.978;2023-02-24T15:34:18;9.50;99.90
27026;DHT22;14565;48.626;8.978;2023-02-24T15:36:46;9.50;99.90
27026;DHT22;14565;48.626;8.978;2023-02-24T15:39:20;9.50;99.90
27026;DHT22;14565;48.626;8.978;2023-02-24T15:41:49;9.40;99.90
27026;DHT22;14565;48.626;8.978;2023-02-24T15:44:30;9.50;99.90
27026;DHT22;14565;48.626;8.978;2023-02-24T15:46:57;9.50;99.90
27026;DHT22;14565;48.626;8.978;2023-02-24T15:49:23;9.40;99.90
27026;DHT22;14565;48.626;8.978;2023-02-24T15:51:51;9.30;99.90
27026;DHT22;14565;48.626;8.978;2023-02-24T15:54:33;9.40;99.90
27026;DHT22;14565;48.626;8.978;2023-02-24T15:57:00;9.30;99.90
27026;DHT22;14565;48.626;8.978;2023-02-24T15:59:27;9.10;99.90
27026;DHT22;14565;48.626;8.978;2023-02-24T16:01:53;9.20;99.90
27026;DHT22;14565;48.626;8.978;2023-02-24T16:04:20;9.10;99.90
27026;DHT22;14565;48.626;8.978;2023-02-24T16:06:49;9.10;99.90
27026;DHT22;14565;48.626;8.978;2023-02-24T16:09:30;9.10;99.90
27026;DHT22;14565;48.626;8.978;2023-02-24T16:12:03;9.10;99.90
27026;DHT22;14565;48.626;8.978;2023-02-24T16:14:33;9.10;99.90
27026;DHT22;14565;48.626;8.978;2023-02-24T16:17:01;9.20;99.90
27026;DHT22;14565;48.626;8.978;2023-02-24T16:19:28;9.00;99.90
27026;DHT22;14565;48.626;8.978;2023-02-24T16:21:53;9.00;99.90
27026;DHT22;14565;48.626;8.978;2023-02-24T16:24:19;8.90;99.90
27026;DHT22;14565;48.626;8.978;2023-02-24T16:26:45;8.90;99.90
27026;DHT22;14565;48.626;8.978;2023-02-24T16:29:14;8.70;99.90
27026;DHT22;14565;48.626;8.978;2023-02-24T16:31:40;8.70;99.90
27026;DHT22;14565;48.626;8.978;2023-02-24T16:34:10;8.70;99.90
27026;DHT22;14565;48.626;8.978;2023-02-24T16:36:36;8.60;99.90
27026;DHT22;14565;48.626;8.978;2023-02-24T16:39:02;8.60;99.90
27026;DHT22;14565;48.626;8.978;2023-02-24T16:41:29;8.60;99.90
27026;DHT22;14565;48.626;8.978;2023-02-24T16:43:55;8.60;99.90
27026;DHT22;14565;48.626;8.978;2023-02-24T16:46:21;8.60;99.90
27026;DHT22;14565;48.626;8.978;2023-02-24T16:48:49;8.50;99.90
27026;DHT22;14565;48.626;8.978;2023-02-24T16:51:17;8.60;99.90
27026;DHT22;14565;48.626;8.978;2023-02-24T16:53:43;8.50;99.90
27026;DHT22;14565;48.626;8.978;2023-02-24T16:56:09;8.30;99.90
27026;DHT22;14565;48.626;8.978;2023-02-24T16:58:35;8.30;99.90
27026;DHT22;14565;48.626;8.978;2023-02-24T17:01:02;8.30;99.90
27026;DHT22;14565;48.626;8.978;2023-02-24T17:03:42;8.30;99.90
27026;DHT22;14565;48.626;8.978;2023-02-24T17:06:08;8.20;99.90
27026;DHT22;14565;48.626;8.978;2023-02-24T17:08:34;8.20;99.90
27026;DHT22;14565;48.626;8.978;2023-02-24T17:11:00;8.10;99.90
27026;DHT22;14565;48.626;8.978;2023-02-24T17:13:25;8.10;99.90
27026;DHT22;14565;48.626;8.978;2023-02-24T17:15:52;8.10;99.90
27026;DHT22;14565;48.626;8.978;2023-02-24T17:18:25;8.10;99.90
27026;DHT22;14565;48.626;8.978;2023-02-24T17:20:51;8.10;99.90
27026;DHT22;14565;48.626;8.978;2023-02-24T17:23:17;8.10;99.90
27026;DHT22;14565;48.626;8.978;2023-02-24T17:25:42;8.10;99.90
27026;DHT22;14565;48.626;8.978;2023-02-24T17:28:09;8.10;99.90
27026;DHT22;14565;48.626;8.978;2023-02-24T17:30:35;7.90;99.90
27026;DHT22;14565;48.626;8.978;2023-02-24T17:33:01;7.90;99.90
27026;DHT22;14565;48.626;8.978;2023-02-24T17:35:28;7.90;99.90
27026;DHT22;14565;48.626;8.978;2023-02-24T17:37:54;7.90;99.90
27026;DHT22;14565;48.626;8.978;2023-02-24T17:40:20;7.80;99.90
27026;DHT22;14565;48.626;8.978;2023-02-24T17:42:46;7.70;99.90
27026;DHT22;14565;48.626;8.978;2023-02-24T17:45:13;7.70;99.90
27026;DHT22;14565;48.626;8.978;2023-02-24T17:47:39;7.70;99.90
27026;DHT22;14565;48.626;8.978;2023-02-24T17:50:05;7.70;99.90
27026;DHT22;14565;48.626;8.978;2023-02-24T17:52:32;7.60;99.90
27026;DHT22;14565;48.626;8.978;2023-02-24T17:54:57;7.50;99.90
27026;DHT22;14565;48.626;8.978;2023-02-24T17:57:24;7.50;99.90
27026;DHT22;14565;48.626;8.978;2023-02-24T17:59:51;7.40;99.90
27026;DHT22;14565;48.626;8.978;2023-02-24T18:02:17;7.40;99.90
27026;DHT22;14565;48.626;8.978;2023-02-24T18:04:43;7.50;99.90
27026;DHT22;14565;48.626;8.978;2023-02-24T18:07:09;7.50;99.90
27026;DHT22;14565;48.626;8.978;2023-02-24T18:09:36;7.50;99.90
27026;DHT22;14565;48.626;8.978;2023-02-24T18:12:01;7.40;99.90
27026;DHT22;14565;48.626;8.978;2023-02-24T18:14:27;7.40;99.90
27026;DHT22;14565;48.626;8.978;2023-02-24T18:16:53;7.50;99.90
27026;DHT22;14565;48.626;8.978;2023-02-24T18:19:18;7.40;99.90
27026;DHT22;14565;48.626;8.978;2023-02-24T18:21:44;7.30;99.90
27026;DHT22;14565;48.626;8.978;2023-02-24T18:24:10;7.20;99.90
27026;DHT22;14565;48.626;8.978;2023-02-24T18:26:36;7.20;99.90
27026;DHT22;14565;48.626;8.978;2023-02-24T18:29:02;7.20;99.90
27026;DHT22;14565;48.626;8.978;2023-02-24T18:31:28;7.20;99.90
27026;DHT22;14565;48.626;8.978;2023-02-24T18:33:56;7.10;99.90
27026;DHT22;14565;48.626;8.978;2023-02-24T18:36:22;7.00;99.90